createdAt,value
2018-04-10T00:00:47.595Z,99.90
2018-04-10T00:03:15.207Z,99.90
2018-04-10T00:05:43.553Z,99.90
2018-04-10T00:08:11.143Z,99.90
2018-04-10T00:10:39.485Z,99.90
2018-04-10T00:13:07.051Z,99.90
2018-04-10T00:15:34.613Z,99.90
2018-04-10T00:18:02.207Z,99.90
2018-04-10T00:20:30.540Z,99.90
2018-04-10T00:22:58.395Z,99.90
2018-04-10T00:25:25.964Z,99.90
2018-04-10T00:27:53.554Z,99.90
2018-04-10T00:30:21.127Z,99.90
2018-04-10T00:32:49.465Z,99.90
2018-04-10T00:35:17.034Z,99.90
2018-04-10T00:37:44.596Z,99.90
2018-04-10T00:40:12.175Z,99.90
2018-04-10T00:42:39.825Z,99.90
2018-04-10T00:45:07.396Z,99.90
2018-04-10T00:47:34.971Z,99.90
2018-04-10T00:50:03.294Z,99.90
2018-04-10T00:52:30.928Z,99.90
2018-04-10T00:54:59.253Z,99.90
2018-04-10T00:57:26.839Z,99.90
2018-04-10T00:59:54.401Z,99.90
2018-04-10T01:02:22.769Z,99.90
2018-04-10T01:04:50.347Z,99.90
2018-04-10T01:07:17.924Z,99.90
2018-04-10T01:09:46.244Z,99.90
2018-04-10T01:12:13.871Z,99.90
2018-04-10T01:14:41.461Z,99.90
2018-04-10T01:17:09.389Z,99.90
2018-04-10T01:19:36.975Z,99.90
2018-04-10T01:22:04.645Z,99.90
2018-04-10T01:24:32.261Z,99.90
2018-04-10T01:26:59.832Z,99.90
2018-04-10T01:29:28.172Z,99.90
2018-04-10T01:31:55.722Z,99.90
2018-04-10T01:34:23.347Z,99.90
2018-04-10T01:36:51.689Z,99.90
2018-04-10T01:39:19.272Z,99.90
2018-04-10T01:41:47.699Z,99.90
2018-04-10T01:44:16.055Z,99.90
2018-04-10T01:46:43.655Z,99.90
2018-04-10T01:49:11.239Z,99.90
2018-04-10T01:51:38.808Z,99.90
2018-04-10T01:54:06.386Z,99.90
2018-04-10T01:56:34.727Z,99.90
2018-04-10T01:59:02.310Z,99.90
2018-04-10T02:01:29.933Z,99.90
2018-04-10T02:03:57.497Z,99.90
2018-04-10T02:06:25.086Z,99.90
2018-04-10T02:08:52.638Z,99.90
2018-04-10T02:11:20.239Z,99.90
2018-04-10T02:13:48.584Z,99.90
2018-04-10T02:16:16.207Z,99.90
2018-04-10T02:18:43.786Z,99.90
2018-04-10T02:21:11.397Z,99.90
2018-04-10T02:23:39.735Z,99.90
2018-04-10T02:26:07.342Z,99.90
2018-04-10T02:28:35.782Z,99.90
2018-04-10T02:31:03.374Z,99.90
2018-04-10T02:33:31.716Z,99.90
2018-04-10T02:35:59.308Z,99.90
2018-04-10T02:38:26.904Z,99.90
2018-04-10T02:40:54.513Z,99.90
2018-04-10T02:43:22.087Z,99.90
2018-04-10T02:45:49.781Z,99.90
2018-04-10T02:48:18.153Z,99.90
2018-04-10T02:50:45.781Z,99.90
2018-04-10T02:53:13.389Z,99.90
2018-04-10T02:55:41.001Z,99.90
2018-04-10T02:58:08.627Z,99.90
2018-04-10T03:00:36.185Z,99.90
2018-04-10T03:03:03.790Z,99.90
2018-04-10T03:05:31.351Z,99.90
2018-04-10T03:07:59.033Z,99.90
2018-04-10T03:10:26.605Z,99.90
2018-04-10T03:12:54.988Z,99.90
2018-04-10T03:15:23.348Z,99.90
2018-04-10T03:17:50.973Z,99.90
2018-04-10T03:20:18.576Z,99.90
2018-04-10T03:22:46.176Z,99.90
2018-04-10T03:25:13.753Z,99.90
2018-04-10T03:27:41.340Z,99.90
2018-04-10T03:30:08.935Z,99.90
2018-04-10T03:32:36.548Z,99.90
2018-04-10T03:35:04.185Z,99.90
2018-04-10T03:37:31.770Z,99.90
2018-04-10T03:39:59.362Z,99.90
2018-04-10T03:42:26.943Z,99.90
2018-04-10T03:44:55.300Z,99.90
2018-04-10T03:47:22.882Z,99.90
2018-04-10T03:49:51.268Z,99.90
2018-04-10T03:52:18.831Z,99.90
2018-04-10T03:54:46.440Z,99.90
2018-04-10T03:57:14.031Z,99.90
2018-04-10T03:59:41.637Z,99.90
2018-04-10T04:02:09.254Z,99.90
2018-04-10T04:04:36.839Z,99.90
2018-04-10T04:07:05.151Z,99.90
2018-04-10T04:09:32.763Z,99.90
2018-04-10T04:12:01.098Z,99.90
2018-04-10T04:14:28.680Z,99.90
2018-04-10T04:17:08.003Z,99.90
2018-04-10T04:19:47.491Z,99.90
2018-04-10T04:22:27.650Z,99.90
2018-04-10T04:24:55.243Z,99.90
2018-04-10T04:27:22.879Z,99.90
2018-04-10T04:29:50.443Z,99.90
2018-04-10T04:32:18.022Z,99.90
2018-04-10T04:34:45.598Z,99.90
2018-04-10T04:37:13.291Z,99.90
2018-04-10T04:39:40.878Z,99.90
2018-04-10T04:42:09.285Z,99.90
2018-04-10T04:44:36.875Z,99.90
2018-04-10T04:47:04.448Z,99.90
2018-04-10T04:49:32.032Z,99.90
2018-04-10T04:52:00.401Z,99.90
2018-04-10T04:54:28.012Z,99.90
2018-04-10T04:56:55.599Z,99.90
2018-04-10T04:59:23.175Z,99.90
2018-04-10T05:01:50.768Z,99.90
2018-04-10T05:04:19.109Z,99.90
2018-04-10T05:06:46.695Z,99.90
2018-04-10T05:09:15.088Z,99.90
2018-04-10T05:11:42.674Z,99.90
2018-04-10T05:14:10.269Z,99.90
2018-04-10T05:16:37.895Z,99.90
2018-04-10T05:19:06.244Z,99.90
2018-04-10T05:21:34.589Z,99.90
2018-04-10T05:24:02.180Z,99.90
2018-04-10T05:26:30.520Z,99.90
2018-04-10T05:28:58.100Z,99.90
2018-04-10T05:31:25.670Z,99.90
2018-04-10T05:33:53.291Z,99.90
2018-04-10T05:36:20.908Z,99.90
2018-04-10T05:38:49.319Z,99.90
2018-04-10T05:41:16.968Z,99.90
2018-04-10T05:43:45.280Z,99.90
2018-04-10T05:46:12.897Z,99.90
2018-04-10T05:48:41.307Z,99.90
2018-04-10T05:51:08.880Z,99.90
2018-04-10T05:53:36.468Z,99.90
2018-04-10T05:56:04.019Z,99.90
2018-04-10T05:58:31.739Z,99.90
2018-04-10T06:00:59.319Z,99.90
2018-04-10T06:03:26.912Z,99.90
2018-04-10T06:05:54.491Z,99.90
2018-04-10T06:08:22.830Z,99.90
2018-04-10T06:10:50.472Z,99.90
2018-04-10T06:13:18.059Z,99.90
2018-04-10T06:15:45.643Z,99.90
2018-04-10T06:18:13.232Z,99.90
2018-04-10T06:20:41.624Z,99.90
2018-04-10T06:23:09.174Z,99.90
2018-04-10T06:25:37.547Z,99.90
2018-04-10T06:28:05.884Z,99.90
2018-04-10T06:30:33.484Z,99.90
2018-04-10T06:33:01.820Z,99.90
2018-04-10T06:35:29.532Z,99.90
2018-04-10T06:37:58.039Z,99.90
2018-04-10T06:40:26.379Z,99.90
2018-04-10T06:42:53.949Z,99.90
2018-04-10T06:45:22.321Z,99.90
2018-04-10T06:47:49.923Z,99.90
2018-04-10T06:50:17.509Z,99.90
2018-04-10T06:52:45.098Z,99.90
2018-04-10T06:55:12.672Z,99.90
2018-04-10T06:57:41.025Z,99.90
2018-04-10T07:00:08.605Z,99.90
2018-04-10T07:02:36.208Z,99.90
2018-04-10T07:05:03.768Z,99.90
2018-04-10T07:07:31.448Z,99.90
2018-04-10T07:09:58.999Z,99.90
2018-04-10T07:12:26.668Z,98.80
2018-04-10T07:14:54.492Z,98.70
2018-04-10T07:17:22.832Z,99.90
2018-04-10T07:19:50.412Z,99.90
2018-04-10T07:22:17.982Z,99.90
2018-04-10T07:24:45.606Z,99.90
2018-04-10T07:27:13.183Z,99.90
2018-04-10T07:29:40.751Z,99.90
2018-04-10T07:32:08.310Z,98.30
2018-04-10T07:34:35.888Z,97.90
2018-04-10T07:37:03.440Z,96.80
2018-04-10T07:39:31.036Z,97.60
2018-04-10T07:41:58.614Z,97.60
2018-04-10T07:44:26.203Z,97.50
2018-04-10T07:46:53.770Z,95.70
2018-04-10T07:49:21.340Z,95.40
2018-04-10T07:51:48.898Z,93.20
2018-04-10T07:54:16.783Z,93.10
2018-04-10T07:56:44.343Z,90.50
2018-04-10T07:59:11.939Z,89.70
2018-04-10T08:01:40.266Z,81.70
2018-04-10T08:04:07.871Z,81.70
2018-04-10T08:06:35.441Z,77.20
2018-04-10T08:09:02.989Z,72.70
2018-04-10T08:11:30.574Z,72.10
2018-04-10T08:13:58.138Z,70.60
2018-04-10T08:16:25.716Z,69.10
2018-04-10T08:18:53.294Z,64.10
2018-04-10T08:21:20.900Z,63.50
2018-04-10T08:23:48.456Z,66.10
2018-04-10T08:26:16.822Z,65.20
2018-04-10T08:28:45.143Z,64.70
2018-04-10T08:31:12.753Z,64.60
2018-04-10T08:33:41.096Z,64.40
2018-04-10T08:36:08.667Z,64.50
2018-04-10T08:38:36.340Z,64.80
2018-04-10T08:41:03.947Z,61.40
2018-04-10T08:43:31.549Z,61.60
2018-04-10T08:45:59.127Z,59.60
2018-04-10T08:48:26.687Z,62.00
2018-04-10T08:50:54.335Z,64.30
2018-04-10T08:53:21.903Z,61.30
2018-04-10T08:55:49.473Z,65.70
2018-04-10T08:58:17.089Z,66.90
2018-04-10T09:00:44.683Z,68.50
2018-04-10T09:03:12.294Z,67.40
2018-04-10T09:05:39.859Z,67.10
2018-04-10T09:08:07.450Z,63.50
2018-04-10T09:10:34.995Z,63.00
2018-04-10T09:13:02.587Z,61.60
2018-04-10T09:15:30.231Z,63.10
2018-04-10T09:17:57.946Z,61.20
2018-04-10T09:20:26.255Z,63.20
2018-04-10T09:22:53.849Z,63.00
2018-04-10T09:25:21.412Z,61.30
2018-04-10T09:27:49.033Z,65.10
2018-04-10T09:30:16.612Z,63.60
2018-04-10T09:32:44.238Z,63.00
2018-04-10T09:35:12.559Z,64.80
2018-04-10T09:37:40.173Z,64.90
2018-04-10T09:40:08.516Z,63.30
2018-04-10T09:42:36.125Z,63.00
2018-04-10T09:45:04.483Z,63.10
2018-04-10T09:47:32.811Z,61.60
2018-04-10T09:50:00.387Z,61.70
2018-04-10T09:52:27.946Z,62.50
2018-04-10T09:54:55.525Z,62.20
2018-04-10T09:57:23.108Z,59.20
2018-04-10T09:59:50.707Z,62.10
2018-04-10T10:02:18.293Z,58.70
2018-04-10T10:04:45.875Z,60.80
2018-04-10T10:07:13.435Z,64.30
2018-04-10T10:09:41.024Z,65.10
2018-04-10T10:12:09.384Z,66.90
2018-04-10T10:14:36.973Z,66.70
2018-04-10T10:17:05.311Z,68.00
2018-04-10T10:19:32.887Z,67.90
2018-04-10T10:22:00.443Z,67.10
2018-04-10T10:24:28.052Z,70.00
2018-04-10T10:26:55.627Z,70.40
2018-04-10T10:29:23.214Z,66.80
2018-04-10T10:31:50.803Z,65.80
2018-04-10T10:34:19.233Z,65.10
2018-04-10T10:36:46.795Z,65.10
2018-04-10T10:39:14.340Z,67.60
2018-04-10T10:41:41.944Z,61.90
2018-04-10T10:44:09.518Z,61.10
2018-04-10T10:46:37.127Z,60.50
2018-04-10T10:49:04.685Z,59.00
2018-04-10T10:51:32.350Z,58.20
2018-04-10T10:53:59.916Z,56.90
2018-04-10T10:56:27.520Z,55.50
2018-04-10T10:58:55.098Z,59.40
2018-04-10T11:01:22.686Z,57.10
2018-04-10T11:03:50.253Z,53.60
2018-04-10T11:06:17.876Z,53.50
2018-04-10T11:08:45.456Z,55.70
2018-04-10T11:11:13.783Z,52.10
2018-04-10T11:13:41.382Z,52.10
2018-04-10T11:16:09.887Z,56.10
2018-04-10T11:18:37.460Z,56.00
2018-04-10T11:21:05.807Z,58.60
2018-04-10T11:23:34.167Z,57.50
2018-04-10T11:26:01.771Z,57.30
2018-04-10T11:28:29.350Z,61.10
2018-04-10T11:30:56.931Z,58.10
2018-04-10T11:33:24.531Z,58.50
2018-04-10T11:35:52.871Z,57.40
2018-04-10T11:38:20.454Z,57.40
2018-04-10T11:40:48.031Z,55.50
2018-04-10T11:43:15.596Z,57.50
2018-04-10T11:45:43.932Z,58.80
2018-04-10T11:48:11.519Z,58.70
2018-04-10T11:50:39.101Z,57.80
2018-04-10T11:53:07.433Z,58.00
2018-04-10T11:55:35.046Z,57.90
2018-04-10T11:58:03.403Z,58.60
2018-04-10T12:00:30.984Z,58.40
2018-04-10T12:02:59.353Z,61.60
2018-04-10T12:05:26.939Z,61.60
2018-04-10T12:07:54.517Z,59.20
2018-04-10T12:10:22.149Z,62.80
2018-04-10T12:12:50.463Z,59.70
2018-04-10T12:15:18.807Z,60.20
2018-04-10T12:17:47.158Z,62.50
2018-04-10T12:20:14.723Z,62.50
2018-04-10T12:22:43.106Z,67.10
2018-04-10T12:25:10.664Z,67.20
2018-04-10T12:27:38.259Z,63.80
2018-04-10T12:30:05.879Z,65.70
2018-04-10T12:32:33.456Z,70.00
2018-04-10T12:35:01.830Z,68.00
2018-04-10T12:37:29.396Z,67.90
2018-04-10T12:39:56.996Z,63.30
2018-04-10T12:42:24.641Z,64.00
2018-04-10T12:44:52.206Z,63.60
2018-04-10T12:47:19.815Z,65.80
2018-04-10T12:49:47.396Z,64.20
2018-04-10T12:52:14.985Z,65.50
2018-04-10T12:54:43.323Z,68.60
2018-04-10T12:57:10.937Z,68.50
2018-04-10T12:59:38.512Z,66.80
2018-04-10T13:02:06.210Z,65.00
2018-04-10T13:04:33.760Z,66.60
2018-04-10T13:07:01.360Z,67.60
2018-04-10T13:09:28.957Z,68.30
2018-04-10T13:11:56.519Z,67.10
2018-04-10T13:14:24.113Z,68.70
2018-04-10T13:16:51.720Z,70.10
2018-04-10T13:19:19.311Z,67.10
2018-04-10T13:21:47.667Z,69.00
2018-04-10T13:24:15.245Z,69.10
2018-04-10T13:26:42.924Z,68.30
2018-04-10T13:29:10.487Z,71.90
2018-04-10T13:31:38.032Z,73.20
2018-04-10T13:34:05.631Z,67.50
2018-04-10T13:36:33.206Z,69.50
2018-04-10T13:39:00.789Z,69.30
2018-04-10T13:41:28.343Z,69.80
2018-04-10T13:43:56.707Z,70.20
2018-04-10T13:46:24.284Z,70.20
2018-04-10T13:48:52.655Z,67.40
2018-04-10T13:51:21.031Z,71.70
2018-04-10T13:53:49.383Z,71.70
2018-04-10T13:56:16.964Z,71.70
2018-04-10T13:58:44.557Z,73.10
2018-04-10T14:01:12.909Z,73.40
2018-04-10T14:03:41.264Z,77.30
2018-04-10T14:06:08.965Z,77.20
2018-04-10T14:08:37.290Z,76.00
2018-04-10T14:11:05.655Z,75.20
2018-04-10T14:13:33.258Z,75.20
2018-04-10T14:16:00.843Z,78.50
2018-04-10T14:18:29.202Z,77.50
2018-04-10T14:20:56.820Z,77.40
2018-04-10T14:23:24.399Z,78.50
2018-04-10T14:25:52.384Z,79.40
2018-04-10T14:28:19.958Z,79.50
2018-04-10T14:30:47.567Z,76.30
2018-04-10T14:33:15.151Z,77.10
2018-04-10T14:35:42.732Z,75.90
2018-04-10T14:38:10.355Z,76.80
2018-04-10T14:40:37.993Z,77.40
2018-04-10T14:43:06.364Z,81.50
2018-04-10T14:45:34.732Z,78.00
2018-04-10T14:48:02.325Z,78.00
2018-04-10T14:50:29.993Z,80.30
2018-04-10T14:52:57.599Z,83.10
2018-04-10T14:55:25.153Z,82.40
2018-04-10T14:57:52.824Z,80.40
2018-04-10T15:00:20.395Z,76.70
2018-04-10T15:02:48.091Z,80.10
2018-04-10T15:05:15.656Z,78.70
2018-04-10T15:07:43.263Z,78.40
2018-04-10T15:10:10.824Z,79.30
2018-04-10T15:12:38.466Z,79.30
2018-04-10T15:15:06.032Z,78.70
2018-04-10T15:17:33.614Z,80.00
2018-04-10T15:20:01.197Z,80.40
2018-04-10T15:22:28.857Z,80.50
2018-04-10T15:24:56.403Z,81.80
2018-04-10T15:27:24.033Z,83.60
2018-04-10T15:29:51.617Z,81.00
2018-04-10T15:32:19.231Z,82.10
2018-04-10T15:34:46.832Z,81.70
2018-04-10T15:37:14.382Z,81.70
2018-04-10T15:39:42.745Z,84.60
2018-04-10T15:42:10.312Z,84.50
2018-04-10T15:44:37.908Z,86.10
2018-04-10T15:47:05.590Z,88.30
2018-04-10T15:49:33.134Z,87.70
2018-04-10T15:52:00.714Z,88.80
2018-04-10T15:54:29.064Z,89.20
2018-04-10T15:56:57.557Z,89.10
2018-04-10T15:59:25.152Z,89.20
2018-04-10T16:01:53.474Z,90.30
2018-04-10T16:04:21.089Z,90.30
2018-04-10T16:06:49.425Z,90.20
2018-04-10T16:09:17.011Z,90.10
2018-04-10T16:11:44.617Z,90.70
2018-04-10T16:14:12.208Z,91.30
2018-04-10T16:16:39.840Z,93.00
2018-04-10T16:19:07.449Z,91.90
2018-04-10T16:21:35.017Z,92.30
2018-04-10T16:24:02.600Z,92.30
2018-04-10T16:26:31.004Z,91.50
2018-04-10T16:28:58.625Z,91.60
2018-04-10T16:31:26.243Z,92.40
2018-04-10T16:33:53.804Z,92.00
2018-04-10T16:36:21.428Z,92.00
2018-04-10T16:38:49.763Z,92.30
2018-04-10T16:41:17.433Z,92.30
2018-04-10T16:43:45.023Z,92.40
2018-04-10T16:46:13.396Z,93.00
2018-04-10T16:48:40.968Z,92.90
2018-04-10T16:51:09.334Z,93.50
2018-04-10T16:53:37.683Z,94.30
2018-04-10T16:56:05.360Z,94.30
2018-04-10T16:58:32.963Z,94.80
2018-04-10T17:01:01.324Z,95.30
2018-04-10T17:03:29.686Z,96.40
2018-04-10T17:05:57.285Z,96.40
2018-04-10T17:08:24.923Z,96.70
2018-04-10T17:10:52.488Z,98.40
2018-04-10T17:13:20.076Z,99.30
2018-04-10T17:15:47.655Z,99.80
2018-04-10T17:18:15.259Z,99.90
2018-04-10T17:20:42.824Z,99.90
2018-04-10T17:23:10.424Z,99.90
2018-04-10T17:25:37.983Z,99.90
2018-04-10T17:28:05.577Z,99.90
2018-04-10T17:30:33.152Z,99.90
2018-04-10T17:33:01.951Z,99.90
2018-04-10T17:35:29.595Z,99.90
2018-04-10T17:37:57.206Z,99.90
2018-04-10T17:40:24.880Z,99.90
2018-04-10T17:42:52.472Z,99.90
2018-04-10T17:45:20.068Z,99.90
2018-04-10T17:47:47.666Z,99.90
2018-04-10T17:50:15.256Z,99.90
2018-04-10T17:52:42.835Z,99.90
2018-04-10T17:55:10.456Z,99.90
2018-04-10T17:57:38.055Z,99.90
2018-04-10T18:00:05.656Z,99.90
2018-04-10T18:02:34.040Z,99.90
2018-04-10T18:05:02.466Z,99.90
2018-04-10T18:07:30.054Z,99.90
2018-04-10T18:09:57.628Z,99.90
2018-04-10T18:12:25.972Z,99.90
2018-04-10T18:14:53.605Z,99.90
2018-04-10T18:17:21.220Z,99.90
2018-04-10T18:19:48.865Z,99.90
2018-04-10T18:22:16.477Z,99.90
2018-04-10T18:24:44.099Z,99.90
2018-04-10T18:27:11.701Z,99.90
2018-04-10T18:29:39.288Z,99.90
2018-04-10T18:32:06.905Z,99.90
2018-04-10T18:34:35.265Z,99.90
2018-04-10T18:37:02.892Z,99.90
2018-04-10T18:39:30.513Z,99.90
2018-04-10T18:41:58.869Z,99.90
2018-04-10T18:44:26.480Z,99.90
2018-04-10T18:46:54.117Z,99.90
2018-04-10T18:49:21.676Z,99.90
2018-04-10T18:51:50.076Z,99.90
2018-04-10T18:54:18.034Z,99.90
2018-04-10T18:56:46.421Z,99.90
2018-04-10T18:59:14.096Z,99.90
2018-04-10T19:01:41.668Z,99.90
2018-04-10T19:04:09.364Z,99.90
2018-04-10T19:06:36.960Z,99.90
2018-04-10T19:09:06.149Z,99.90
2018-04-10T19:11:33.735Z,99.90
2018-04-10T19:14:01.327Z,99.90
2018-04-10T19:16:28.908Z,99.90
2018-04-10T19:18:56.505Z,99.90
2018-04-10T19:21:25.104Z,99.90
2018-04-10T19:23:52.710Z,99.90
2018-04-10T19:26:20.338Z,99.90
2018-04-10T19:28:47.983Z,99.90
2018-04-10T19:31:16.364Z,99.90
2018-04-10T19:33:54.015Z,99.90
2018-04-10T19:36:22.394Z,99.90
2018-04-10T19:38:50.002Z,99.90
2018-04-10T19:41:17.617Z,99.90
2018-04-10T19:43:45.200Z,99.90
2018-04-10T19:46:12.847Z,99.90
2018-04-10T19:48:40.417Z,99.90
2018-04-10T19:51:08.014Z,99.90
2018-04-10T19:53:36.440Z,99.90
2018-04-10T19:56:04.072Z,99.90
2018-04-10T19:58:31.681Z,99.90
2018-04-10T20:00:59.278Z,99.90
2018-04-10T20:03:26.932Z,99.90
2018-04-10T20:05:55.428Z,99.90
2018-04-10T20:08:23.141Z,99.90
2018-04-10T20:10:50.840Z,99.90
2018-04-10T20:13:19.323Z,99.90
2018-04-10T20:15:47.797Z,99.90
2018-04-10T20:18:16.211Z,99.90
2018-04-10T20:20:43.857Z,99.90
2018-04-10T20:23:12.244Z,99.90
2018-04-10T20:25:39.829Z,99.90
2018-04-10T20:28:07.488Z,99.90
2018-04-10T20:30:35.157Z,99.90
2018-04-10T20:33:03.512Z,99.90
2018-04-10T20:35:31.095Z,99.90
2018-04-10T20:37:58.778Z,99.90
2018-04-10T20:40:26.349Z,99.90
2018-04-10T20:42:53.991Z,99.90
2018-04-10T20:45:21.588Z,99.90
2018-04-10T20:47:49.184Z,99.90
2018-04-10T20:50:16.785Z,99.90
2018-04-10T20:52:44.461Z,99.90
2018-04-10T20:55:12.048Z,99.90
2018-04-10T20:57:40.462Z,99.90
2018-04-10T21:00:08.031Z,99.90
2018-04-10T21:02:35.608Z,99.90
2018-04-10T21:05:03.202Z,99.90
2018-04-10T21:07:30.753Z,99.90
2018-04-10T21:09:58.403Z,99.90
2018-04-10T21:12:25.995Z,99.90
2018-04-10T21:14:53.576Z,99.90
2018-04-10T21:17:21.147Z,99.90
2018-04-10T21:19:48.764Z,99.90
2018-04-10T21:22:16.335Z,99.90
2018-04-10T21:24:43.921Z,99.90
2018-04-10T21:27:11.488Z,99.90
2018-04-10T21:29:39.085Z,99.90
2018-04-10T21:32:06.645Z,99.90
2018-04-10T21:34:34.224Z,99.90
2018-04-10T21:37:01.807Z,99.90
2018-04-10T21:39:30.159Z,99.90
2018-04-10T21:41:57.756Z,99.90
2018-04-10T21:44:26.174Z,99.90
2018-04-10T21:46:53.775Z,99.90
2018-04-10T21:49:21.376Z,99.90
2018-04-10T21:51:48.967Z,99.90
2018-04-10T21:54:16.526Z,99.90
2018-04-10T21:56:44.103Z,99.90
2018-04-10T21:59:11.765Z,99.90
2018-04-10T22:01:39.363Z,99.90
2018-04-10T22:04:07.005Z,99.90
2018-04-10T22:06:34.593Z,99.90
2018-04-10T22:09:02.165Z,99.90
2018-04-10T22:11:29.753Z,99.90
2018-04-10T22:13:57.367Z,99.90
2018-04-10T22:16:25.702Z,99.90
2018-04-10T22:18:53.267Z,99.90
2018-04-10T22:21:20.848Z,99.90
2018-04-10T22:23:48.435Z,99.90
2018-04-10T22:26:16.786Z,99.90
2018-04-10T22:28:44.373Z,99.90
2018-04-10T22:31:12.727Z,99.90
2018-04-10T22:33:40.368Z,99.90
2018-04-10T22:36:08.728Z,99.90
2018-04-10T22:38:36.314Z,99.90
2018-04-10T22:41:04.797Z,99.90
2018-04-10T22:43:32.364Z,99.90
2018-04-10T22:46:00.720Z,99.90
2018-04-10T22:48:28.312Z,99.90
2018-04-10T22:50:55.905Z,99.90
2018-04-10T22:53:23.512Z,99.90
2018-04-10T22:55:51.090Z,99.90
2018-04-10T22:58:19.433Z,99.90
2018-04-10T23:00:49.723Z,99.90
2018-04-10T23:03:17.299Z,99.90
2018-04-10T23:05:44.918Z,99.90
2018-04-10T23:08:12.510Z,99.90
2018-04-10T23:10:40.111Z,99.90
2018-04-10T23:13:07.689Z,99.90
2018-04-10T23:15:35.270Z,99.90
2018-04-10T23:18:02.855Z,99.90
2018-04-10T23:20:31.202Z,99.90
2018-04-10T23:22:58.786Z,99.90
2018-04-10T23:25:27.126Z,99.90
2018-04-10T23:27:54.732Z,99.90
2018-04-10T23:30:23.091Z,99.90
2018-04-10T23:32:50.712Z,99.90
2018-04-10T23:35:18.277Z,99.90
2018-04-10T23:37:45.868Z,99.90
2018-04-10T23:40:13.432Z,99.90
2018-04-10T23:42:41.037Z,99.90
2018-04-10T23:45:08.587Z,99.90
2018-04-10T23:47:36.925Z,99.90
2018-04-10T23:50:04.508Z,99.90
2018-04-10T23:52:32.104Z,99.90
2018-04-10T23:54:59.707Z,99.90
2018-04-10T23:57:28.092Z,99.90
2018-04-10T23:59:55.669Z,99.90
